createdAt,value
2022-11-30T00:01:40.544Z,101919.91
2022-11-30T00:04:44.950Z,101912.84
2022-11-30T00:07:48.007Z,101911.13
2022-11-30T00:10:50.651Z,101918.16
2022-11-30T00:13:53.705Z,101913.72
2022-11-30T00:16:56.362Z,101913.72
2022-11-30T00:20:00.409Z,101914.63
2022-11-30T00:23:03.007Z,101912.88
2022-11-30T00:26:07.767Z,101913.72
2022-11-30T00:29:10.423Z,101926.91
2022-11-30T00:32:13.028Z,101927.84
2022-11-30T00:35:17.833Z,101927.94
2022-11-30T00:38:20.462Z,101921.69
2022-11-30T00:41:23.193Z,101930.47
2022-11-30T00:44:25.825Z,101920.78
2022-11-30T00:47:28.421Z,101918.19
2022-11-30T00:50:32.401Z,101914.63
2022-11-30T00:53:35.017Z,101913.88
2022-11-30T00:56:37.643Z,101915.50
2022-11-30T00:59:40.272Z,101912.06
2022-11-30T01:02:43.098Z,101919.91
2022-11-30T01:05:47.218Z,101916.38
2022-11-30T01:08:49.805Z,101920.75
2022-11-30T01:11:52.445Z,101922.50
2022-11-30T01:14:55.150Z,101926.94
2022-11-30T01:18:00.025Z,101933.13
2022-11-30T01:21:06.964Z,101932.25
2022-11-30T01:24:10.573Z,101928.75
2022-11-30T01:27:13.189Z,101933.97
2022-11-30T01:30:15.956Z,101938.50
2022-11-30T01:33:18.634Z,101930.63
2022-11-30T01:36:23.892Z,101931.47
2022-11-30T01:39:26.660Z,101932.25
2022-11-30T01:42:29.440Z,101933.09
2022-11-30T01:45:32.040Z,101924.28
2022-11-30T01:48:34.689Z,101926.91
2022-11-30T01:51:42.303Z,101928.63
2022-11-30T01:54:49.878Z,101943.66
2022-11-30T01:57:57.654Z,101947.19
2022-11-30T02:01:00.938Z,101932.25
2022-11-30T02:04:09.172Z,101938.41
2022-11-30T02:07:13.738Z,101941.03
2022-11-30T02:10:18.787Z,101935.69
2022-11-30T02:13:45.723Z,101942.66
2022-11-30T02:16:57.628Z,101946.25
2022-11-30T02:20:30.145Z,101935.00
2022-11-30T02:23:50.409Z,101941.03
2022-11-30T02:27:05.833Z,101930.47
2022-11-30T02:30:12.876Z,101929.59
2022-11-30T02:33:19.182Z,101930.47
2022-11-30T02:36:23.003Z,101926.13
2022-11-30T02:39:25.604Z,101919.06
2022-11-30T02:42:28.297Z,101919.97
2022-11-30T02:45:37.027Z,101924.44
2022-11-30T02:48:45.043Z,101923.53
2022-11-30T02:51:49.760Z,101929.59
2022-11-30T02:54:52.979Z,101932.31
2022-11-30T02:57:55.643Z,101941.03
2022-11-30T03:00:59.680Z,101939.47
2022-11-30T03:04:02.345Z,101942.03
2022-11-30T03:07:05.003Z,101948.19
2022-11-30T03:10:09.380Z,101962.16
2022-11-30T03:13:11.987Z,101955.97
2022-11-30T03:16:15.999Z,101962.13
2022-11-30T03:19:18.781Z,101953.47
2022-11-30T03:22:21.572Z,101955.16
2022-11-30T03:25:24.195Z,101958.66
2022-11-30T03:28:26.877Z,101954.25
2022-11-30T03:31:31.025Z,101965.72
2022-11-30T03:34:33.786Z,101968.31
2022-11-30T03:37:36.400Z,101966.59
2022-11-30T03:40:39.328Z,101967.38
2022-11-30T03:43:42.100Z,101977.91
2022-11-30T03:46:46.233Z,101971.78
2022-11-30T03:49:48.882Z,101966.50
2022-11-30T03:52:51.498Z,101967.41
2022-11-30T03:55:55.809Z,101966.56
2022-11-30T03:58:58.560Z,101971.00
2022-11-30T04:02:02.639Z,101979.72
2022-11-30T04:05:05.638Z,101977.09
2022-11-30T04:08:08.327Z,101970.94
2022-11-30T04:11:11.480Z,101976.19
2022-11-30T04:14:14.089Z,101970.06
2022-11-30T04:17:18.035Z,101970.06
2022-11-30T04:20:20.677Z,101978.88
2022-11-30T04:23:24.253Z,101977.03
2022-11-30T04:26:26.872Z,101964.03
2022-11-30T04:29:29.452Z,101977.94
2022-11-30T04:32:33.431Z,101981.44
2022-11-30T04:35:41.712Z,101977.97
2022-11-30T04:38:44.313Z,101972.69
2022-11-30T04:41:46.929Z,101974.47
2022-11-30T04:44:49.615Z,101970.97
2022-11-30T04:47:53.585Z,101977.09
2022-11-30T04:51:01.791Z,101978.84
2022-11-30T04:54:04.606Z,101980.63
2022-11-30T04:57:07.444Z,101977.22
2022-11-30T05:00:11.917Z,101980.63
2022-11-30T05:03:15.962Z,101987.59
2022-11-30T05:06:18.738Z,101991.09
2022-11-30T05:09:21.393Z,101995.59
2022-11-30T05:12:24.019Z,101994.66
2022-11-30T05:15:26.778Z,102003.47
2022-11-30T05:18:31.618Z,102005.25
2022-11-30T05:21:34.275Z,102004.31
2022-11-30T05:24:36.981Z,102007.84
2022-11-30T05:27:39.648Z,102005.22
2022-11-30T05:30:43.613Z,102005.16
2022-11-30T05:33:51.289Z,102010.44
2022-11-30T05:36:53.902Z,102017.56
2022-11-30T05:39:56.510Z,102019.28
2022-11-30T05:43:00.101Z,102030.72
2022-11-30T05:46:03.964Z,102021.00
2022-11-30T05:49:08.227Z,102028.97
2022-11-30T05:52:10.878Z,102029.84
2022-11-30T05:55:13.551Z,102029.94
2022-11-30T05:58:16.200Z,102031.66
2022-11-30T06:01:20.866Z,102030.72
2022-11-30T06:04:24.795Z,102039.53
2022-11-30T06:07:27.491Z,102043.97
2022-11-30T06:10:30.169Z,102043.06
2022-11-30T06:13:32.868Z,102058.91
2022-11-30T06:16:35.503Z,102051.00
2022-11-30T06:19:39.473Z,102051.88
2022-11-30T06:22:45.328Z,102051.06
2022-11-30T06:25:47.927Z,102051.00
2022-11-30T06:28:50.556Z,102051.88
2022-11-30T06:31:53.227Z,102058.88
2022-11-30T06:34:57.187Z,102062.38
2022-11-30T06:38:00.770Z,102059.78
2022-11-30T06:41:05.884Z,102062.41
2022-11-30T06:44:09.519Z,102065.91
2022-11-30T06:47:12.292Z,102067.72
2022-11-30T06:50:16.418Z,102072.22
2022-11-30T06:53:19.008Z,102067.72
2022-11-30T06:56:22.153Z,102067.75
2022-11-30T06:59:25.091Z,102065.09
2022-11-30T07:02:27.728Z,102070.34
2022-11-30T07:05:35.709Z,102073.00
2022-11-30T07:08:38.610Z,102076.56
2022-11-30T07:11:41.376Z,102074.78
2022-11-30T07:14:44.009Z,102076.56
2022-11-30T07:17:46.640Z,102082.66
2022-11-30T07:20:50.683Z,102081.75
2022-11-30T07:24:11.046Z,102083.53
2022-11-30T07:27:14.054Z,102082.69
2022-11-30T07:30:17.087Z,102085.28
2022-11-30T07:33:19.690Z,102087.91
2022-11-30T07:36:25.800Z,102085.28
2022-11-30T07:39:28.406Z,102091.47
2022-11-30T07:42:30.999Z,102093.22
2022-11-30T07:45:33.678Z,102100.25
2022-11-30T07:48:36.355Z,102095.88
2022-11-30T07:51:40.484Z,102094.16
2022-11-30T07:54:43.077Z,102099.41
2022-11-30T07:57:45.735Z,102102.97
2022-11-30T08:00:48.379Z,102096.88
2022-11-30T08:03:51.870Z,102106.47
2022-11-30T08:06:55.959Z,102103.91
2022-11-30T08:09:58.561Z,102110.88
2022-11-30T08:13:01.183Z,102103.84
2022-11-30T08:16:04.756Z,102102.16
2022-11-30T08:19:07.554Z,102108.19
2022-11-30T08:22:11.626Z,102110.84
2022-11-30T08:25:14.280Z,102110.81
2022-11-30T08:28:16.905Z,102112.56
2022-11-30T08:31:21.375Z,102110.81
2022-11-30T08:34:24.073Z,102111.66
2022-11-30T08:37:28.098Z,102115.22
2022-11-30T08:40:31.368Z,102118.72
2022-11-30T08:43:34.344Z,102117.88
2022-11-30T08:46:53.417Z,102125.78
2022-11-30T08:49:56.188Z,102124.88
2022-11-30T08:53:06.126Z,102127.63
2022-11-30T08:56:12.870Z,102136.38
2022-11-30T08:59:15.491Z,102138.09
2022-11-30T09:02:19.919Z,102144.25
2022-11-30T09:05:22.712Z,102153.97
2022-11-30T09:08:26.672Z,102155.69
2022-11-30T09:11:31.650Z,102152.16
2022-11-30T09:14:34.764Z,102151.28
2022-11-30T09:17:37.720Z,102157.50
2022-11-30T09:20:40.340Z,102164.56
2022-11-30T09:23:45.934Z,102161.84
2022-11-30T09:26:48.718Z,102175.03
2022-11-30T09:29:51.392Z,102164.47
2022-11-30T09:32:54.174Z,102169.75
2022-11-30T09:35:58.074Z,102171.50
2022-11-30T09:39:02.169Z,102167.97
2022-11-30T09:42:22.416Z,102167.97
2022-11-30T09:45:31.315Z,102167.09
2022-11-30T09:48:52.736Z,102170.59
2022-11-30T09:51:59.453Z,102175.88
2022-11-30T09:55:09.129Z,102170.59
2022-11-30T09:58:22.873Z,102167.06
2022-11-30T10:01:29.331Z,102170.63
2022-11-30T10:04:34.596Z,102176.84
2022-11-30T10:07:53.715Z,102171.47
2022-11-30T10:11:14.023Z,102166.19
2022-11-30T10:14:45.821Z,102168.84
2022-11-30T10:17:56.580Z,102169.72
2022-11-30T10:21:12.294Z,102167.06
2022-11-30T10:24:33.428Z,102160.91
2022-11-30T10:27:49.849Z,102161.78
2022-11-30T10:30:52.503Z,102167.22
2022-11-30T10:34:01.400Z,102160.09
2022-11-30T10:37:12.140Z,102166.22
2022-11-30T10:40:19.118Z,102165.34
2022-11-30T10:43:28.936Z,102160.97
2022-11-30T10:46:35.111Z,102160.94
2022-11-30T10:49:40.740Z,102159.19
2022-11-30T10:52:47.811Z,102166.22
2022-11-30T10:55:58.665Z,102154.75
2022-11-30T10:59:05.875Z,102154.75
2022-11-30T11:02:38.971Z,102154.75
2022-11-30T11:05:41.654Z,102151.19
2022-11-30T11:08:46.844Z,102153.84
2022-11-30T11:11:54.797Z,102153.81
2022-11-30T11:15:10.784Z,102156.50
2022-11-30T11:18:24.241Z,102153.00
2022-11-30T11:21:26.896Z,102159.16
2022-11-30T11:24:29.760Z,102158.31
2022-11-30T11:27:37.464Z,102162.69
2022-11-30T11:30:44.045Z,102166.22
2022-11-30T11:33:55.837Z,102155.66
2022-11-30T11:37:06.930Z,102163.56
2022-11-30T11:40:16.944Z,102157.44
2022-11-30T11:43:19.900Z,102164.44
2022-11-30T11:46:23.986Z,102166.19
2022-11-30T11:49:29.290Z,102155.59
2022-11-30T11:52:31.940Z,102157.41
2022-11-30T11:55:35.896Z,102158.28
2022-11-30T11:58:44.611Z,102155.59
2022-11-30T12:01:56.906Z,102164.53
2022-11-30T12:05:04.793Z,102157.38
2022-11-30T12:08:14.405Z,102165.28
2022-11-30T12:11:20.027Z,102167.06
2022-11-30T12:14:22.641Z,102163.56
2022-11-30T12:17:39.325Z,102167.94
2022-11-30T12:20:54.177Z,102169.66
2022-11-30T12:24:14.847Z,102172.34
2022-11-30T12:27:26.237Z,102170.56
2022-11-30T12:30:33.383Z,102168.91
2022-11-30T12:33:55.933Z,102175.88
2022-11-30T12:37:07.952Z,102175.91
2022-11-30T12:40:26.343Z,102174.16
2022-11-30T12:43:40.304Z,102184.75
2022-11-30T12:46:49.655Z,102179.44
2022-11-30T12:50:08.385Z,102181.19
2022-11-30T12:53:21.557Z,102182.91
2022-11-30T12:56:40.198Z,102183.81
2022-11-30T12:59:50.450Z,102184.72
2022-11-30T13:03:15.920Z,102186.47
2022-11-30T13:06:23.963Z,102185.59
2022-11-30T13:09:34.111Z,102192.63
2022-11-30T13:12:39.518Z,102198.78
2022-11-30T13:15:42.716Z,102192.56
2022-11-30T13:18:46.115Z,102194.38
2022-11-30T13:21:55.072Z,102191.72
2022-11-30T13:25:03.839Z,102190.84
2022-11-30T13:28:17.277Z,102200.50
2022-11-30T13:31:24.124Z,102198.75
2022-11-30T13:34:28.839Z,102206.69
2022-11-30T13:37:33.131Z,102205.81
2022-11-30T13:40:35.801Z,102206.69
2022-11-30T13:43:44.836Z,102206.69
2022-11-30T13:46:51.096Z,102212.03
2022-11-30T13:49:57.054Z,102208.50
2022-11-30T13:53:19.262Z,102215.53
2022-11-30T13:56:36.074Z,102216.41
2022-11-30T13:59:46.552Z,102210.25
2022-11-30T14:02:54.775Z,102212.88
2022-11-30T14:05:58.246Z,102205.84
2022-11-30T14:09:02.253Z,102212.91
2022-11-30T14:12:44.977Z,102211.13
2022-11-30T14:15:57.922Z,102204.94
2022-11-30T14:19:01.735Z,102210.22
2022-11-30T14:22:05.109Z,102208.50
2022-11-30T14:25:14.148Z,102219.03
2022-11-30T14:28:20.110Z,102209.38
2022-11-30T14:31:25.882Z,102211.13
2022-11-30T14:34:33.766Z,102209.38
2022-11-30T14:37:44.159Z,102219.94
2022-11-30T14:40:52.698Z,102224.34
2022-11-30T14:44:03.517Z,102226.09
2022-11-30T14:47:23.715Z,102226.94
2022-11-30T14:50:27.643Z,102225.22
2022-11-30T14:53:37.393Z,102226.97
2022-11-30T14:56:46.758Z,102225.22
2022-11-30T14:59:53.092Z,102231.41
2022-11-30T15:02:56.119Z,102237.56
2022-11-30T15:06:01.009Z,102236.66
2022-11-30T15:09:04.271Z,102235.81
2022-11-30T15:12:08.523Z,102225.25
2022-11-30T15:15:19.731Z,102226.09
2022-11-30T15:18:24.101Z,102229.59
2022-11-30T15:21:29.072Z,102227.00
2022-11-30T15:24:31.757Z,102232.28
2022-11-30T15:27:35.786Z,102242.84
2022-11-30T15:30:42.228Z,102241.97
2022-11-30T15:33:47.151Z,102240.22
2022-11-30T15:36:49.851Z,102241.91
2022-11-30T15:39:55.226Z,102244.63
2022-11-30T15:43:00.333Z,102242.84
2022-11-30T15:46:03.199Z,102249.00
2022-11-30T15:49:07.969Z,102246.34
2022-11-30T15:52:18.390Z,102247.19
2022-11-30T15:55:42.579Z,102251.63
2022-11-30T15:59:02.310Z,102252.50
2022-11-30T16:02:14.093Z,102250.75
2022-11-30T16:05:27.639Z,102258.66
2022-11-30T16:08:30.503Z,102257.78
2022-11-30T16:11:35.015Z,102255.13
2022-11-30T16:14:38.961Z,102259.53
2022-11-30T16:17:41.554Z,102265.72
2022-11-30T16:20:45.225Z,102263.94
2022-11-30T16:23:48.623Z,102263.97
2022-11-30T16:26:52.193Z,102263.06
2022-11-30T16:29:56.573Z,102261.34
2022-11-30T16:32:59.265Z,102269.25
2022-11-30T16:36:04.350Z,102267.47
2022-11-30T16:39:09.161Z,102268.34
2022-11-30T16:42:12.602Z,102277.13
2022-11-30T16:45:19.425Z,102277.13
2022-11-30T16:48:22.054Z,102275.34
2022-11-30T16:51:27.214Z,102275.38
2022-11-30T16:54:29.823Z,102283.28
2022-11-30T16:57:32.437Z,102285.03
2022-11-30T17:00:37.042Z,102281.56
2022-11-30T17:03:40.359Z,102283.31
2022-11-30T17:06:45.918Z,102285.06
2022-11-30T17:09:52.515Z,102296.50
2022-11-30T17:12:55.149Z,102293.00
2022-11-30T17:15:59.156Z,102296.50
2022-11-30T17:19:01.765Z,102296.50
2022-11-30T17:22:04.611Z,102296.50
2022-11-30T17:25:10.048Z,102298.22
2022-11-30T17:28:12.680Z,102301.75
2022-11-30T17:31:16.792Z,102307.00
2022-11-30T17:34:19.480Z,102301.72
2022-11-30T17:37:22.954Z,102306.13
2022-11-30T17:40:25.581Z,102309.69
2022-11-30T17:43:28.204Z,102309.69
2022-11-30T17:46:32.255Z,102312.31
2022-11-30T17:49:34.871Z,102317.59
2022-11-30T17:52:37.474Z,102311.44
2022-11-30T17:55:40.108Z,102327.25
2022-11-30T17:58:44.562Z,102327.25
2022-11-30T18:01:48.750Z,102332.53
2022-11-30T18:04:52.487Z,102337.84
2022-11-30T18:07:55.233Z,102344.84
2022-11-30T18:10:57.865Z,102343.97
2022-11-30T18:14:01.798Z,102342.25
2022-11-30T18:17:05.819Z,102343.13
2022-11-30T18:20:09.433Z,102349.25
2022-11-30T18:23:12.066Z,102344.84
2022-11-30T18:26:16.546Z,102352.78
2022-11-30T18:29:19.195Z,102355.41
2022-11-30T18:32:23.156Z,102356.28
2022-11-30T18:35:25.786Z,102357.19
2022-11-30T18:38:32.866Z,102360.69
2022-11-30T18:41:39.772Z,102358.03
2022-11-30T18:44:42.383Z,102362.47
2022-11-30T18:47:46.370Z,102358.94
2022-11-30T18:50:48.963Z,102365.97
2022-11-30T18:53:57.460Z,102369.47
2022-11-30T18:57:00.056Z,102365.97
2022-11-30T19:00:02.907Z,102369.47
2022-11-30T19:03:06.912Z,102364.19
2022-11-30T19:06:10.942Z,102370.38
2022-11-30T19:09:15.449Z,102369.50
2022-11-30T19:12:18.115Z,102370.38
2022-11-30T19:15:20.724Z,102373.00
2022-11-30T19:18:24.697Z,102372.13
2022-11-30T19:21:27.996Z,102374.78
2022-11-30T19:24:30.638Z,102380.91
2022-11-30T19:27:33.298Z,102382.69
2022-11-30T19:30:35.928Z,102377.41
2022-11-30T19:33:40.925Z,102383.56
2022-11-30T19:36:43.548Z,102390.59
2022-11-30T19:39:46.492Z,102387.94
2022-11-30T19:42:49.098Z,102388.84
2022-11-30T19:45:51.751Z,102388.84
2022-11-30T19:49:00.546Z,102394.13
2022-11-30T19:52:03.217Z,102393.25
2022-11-30T19:55:06.679Z,102394.97
2022-11-30T19:58:09.346Z,102399.38
2022-11-30T20:01:13.229Z,102395.00
2022-11-30T20:04:17.633Z,102402.03
2022-11-30T20:07:20.265Z,102402.06
2022-11-30T20:10:23.303Z,102400.28
2022-11-30T20:13:27.269Z,102412.59
2022-11-30T20:16:30.191Z,102409.09
2022-11-30T20:19:34.239Z,102411.72
2022-11-30T20:22:36.826Z,102414.34
2022-11-30T20:25:39.490Z,102406.44
2022-11-30T20:28:42.145Z,102409.94
2022-11-30T20:31:46.692Z,102404.66
2022-11-30T20:34:50.809Z,102409.94
2022-11-30T20:37:53.943Z,102409.09
2022-11-30T20:40:56.625Z,102408.22
2022-11-30T20:43:59.264Z,102407.34
2022-11-30T20:47:01.912Z,102407.31
2022-11-30T20:50:07.377Z,102411.72
2022-11-30T20:53:10.060Z,102414.34
2022-11-30T20:56:13.488Z,102414.38
2022-11-30T20:59:19.364Z,102414.34
2022-11-30T21:02:22.024Z,102410.84
2022-11-30T21:05:26.021Z,102412.59
2022-11-30T21:08:28.604Z,102408.22
2022-11-30T21:11:32.066Z,102409.94
2022-11-30T21:14:34.680Z,102411.72
2022-11-30T21:17:37.701Z,102416.97
2022-11-30T21:20:41.681Z,102410.81
2022-11-30T21:23:45.064Z,102411.72
2022-11-30T21:26:47.668Z,102418.75
2022-11-30T21:29:50.282Z,102413.47
2022-11-30T21:32:52.895Z,102419.63
2022-11-30T21:35:56.899Z,102420.50
2022-11-30T21:39:05.583Z,102424.88
2022-11-30T21:42:08.861Z,102417.84
2022-11-30T21:45:12.336Z,102424.91
2022-11-30T21:48:14.957Z,102423.16
2022-11-30T21:51:21.454Z,102417.88
2022-11-30T21:54:24.106Z,102410.81
2022-11-30T21:57:26.716Z,102421.38
2022-11-30T22:00:29.355Z,102421.41
2022-11-30T22:03:32.247Z,102419.63
2022-11-30T22:06:38.409Z,102411.72
2022-11-30T22:09:41.036Z,102412.59
2022-11-30T22:12:43.690Z,102413.47
2022-11-30T22:15:46.360Z,102414.34
2022-11-30T22:18:49.368Z,102414.34
2022-11-30T22:21:53.288Z,102417.84
2022-11-30T22:24:55.924Z,102416.13
2022-11-30T22:27:58.516Z,102417.84
2022-11-30T22:31:03.977Z,102409.94
2022-11-30T22:34:07.387Z,102412.59
2022-11-30T22:37:11.343Z,102417.00
2022-11-30T22:40:14.974Z,102417.84
2022-11-30T22:43:17.621Z,102416.09
2022-11-30T22:46:22.690Z,102417.84
2022-11-30T22:49:25.565Z,102414.34
2022-11-30T22:52:54.940Z,102416.09
2022-11-30T22:55:52.183Z,102409.06
2022-11-30T22:58:57.081Z,102417.88
2022-11-30T23:02:00.201Z,102403.81
2022-11-30T23:05:02.802Z,102412.56
2022-11-30T23:08:06.971Z,102413.47
2022-11-30T23:11:14.240Z,102417.00
2022-11-30T23:14:17.900Z,102419.63
2022-11-30T23:17:21.106Z,102417.84
2022-11-30T23:20:24.958Z,102423.16
2022-11-30T23:23:30.792Z,102420.50
2022-11-30T23:26:35.530Z,102426.66
2022-11-30T23:29:40.281Z,102412.56
2022-11-30T23:32:42.892Z,102424.00
2022-11-30T23:35:45.609Z,102419.63
2022-11-30T23:38:57.921Z,102424.00
2022-11-30T23:42:00.604Z,102426.66
2022-11-30T23:45:03.223Z,102431.91
2022-11-30T23:48:06.214Z,102427.53
2022-11-30T23:51:08.803Z,102425.78
2022-11-30T23:54:13.111Z,102435.44
2022-11-30T23:57:15.736Z,102430.19
